Time;durP1;ratioP1;P1;durP2;ratioP2;P2;SDS_P1;SDS_P2;PMS_P1;PMS_P2;Temp;Humidity;BMP_temperature;BMP_pressure;BME280_temperature;BME280_humidity;BME280_pressure;Samples;Min_cycle;Max_cycle;Signal;HPM_P1;HPM_P2
2021/08/18 00:02:23;;;;;;;28.13;20.47;;;;;;;;;;5076340;28;20768;-71
2021/08/18 00:04:50;;;;;;;27.80;22.03;;;;;;;;;;5076002;28;20445;-71
2021/08/18 00:07:18;;;;;;;28.30;18.20;;;;;;;;;;5074817;28;20800;-70
2021/08/18 00:09:46;;;;;;;34.07;22.77;;;;;;;;;;5074572;28;20819;-71
2021/08/18 00:12:13;;;;;;;30.90;20.60;;;;;;;;;;5075283;28;20531;-71
2021/08/18 00:14:41;;;;;;;32.00;22.77;;;;;;;;;;5075381;28;20472;-71
2021/08/18 00:17:08;;;;;;;31.47;22.80;;;;;;;;;;5075801;28;20441;-70
2021/08/18 00:19:35;;;;;;;32.07;21.77;;;;;;;;;;5075129;28;20523;-71
2021/08/18 00:22:02;;;;;;;31.67;22.57;;;;;;;;;;5075391;28;20449;-70
2021/08/18 00:24:30;;;;;;;30.03;22.57;;;;;;;;;;5075808;28;20781;-71
2021/08/18 00:26:58;;;;;;;33.03;22.20;;;;;;;;;;5075320;28;20942;-71
2021/08/18 00:29:25;;;;;;;29.90;18.70;;;;;;;;;;5073693;28;20445;-71
2021/08/18 00:31:52;;;;;;;33.23;22.07;;;;;;;;;;5075772;28;20948;-70
2021/08/18 00:34:20;;;;;;;30.07;21.77;;;;;;;;;;5075543;28;20485;-70
2021/08/18 00:36:47;;;;;;;34.53;21.63;;;;;;;;;;5075605;28;20452;-71
2021/08/18 00:39:14;;;;;;;29.90;22.27;;;;;;;;;;5075143;28;20440;-71
2021/08/18 00:41:42;;;;;;;31.97;22.50;;;;;;;;;;5075018;28;20946;-71
2021/08/18 00:44:10;;;;;;;31.67;22.03;;;;;;;;;;5075233;28;20807;-71
2021/08/18 00:46:50;;;;;;;31.47;22.67;;;;;;;;;;5074975;28;20953;-71
2021/08/18 00:49:18;;;;;;;33.80;22.80;;;;;;;;;;5074335;28;20484;-71
2021/08/18 00:51:45;;;;;;;33.30;23.33;;;;;;;;;;5074716;28;20459;-71
2021/08/18 00:54:12;;;;;;;31.67;21.93;;;;;;;;;;5074998;28;20480;-71
2021/08/18 00:56:40;;;;;;;33.73;22.77;;;;;;;;;;5075293;28;20447;-71
2021/08/18 00:59:08;;;;;;;35.37;22.90;;;;;;;;;;5073060;28;20473;-72
2021/08/18 01:01:36;;;;;;;36.43;22.87;;;;;;;;;;5074063;28;20452;-71
2021/08/18 01:04:04;;;;;;;36.87;22.97;;;;;;;;;;5074823;28;20467;-72
2021/08/18 01:06:31;;;;;;;33.33;20.23;;;;;;;;;;5074511;28;20448;-72
2021/08/18 01:08:59;;;;;;;32.53;23.47;;;;;;;;;;5074436;28;20451;-72
2021/08/18 01:11:26;;;;;;;35.70;23.00;;;;;;;;;;5074579;28;20816;-72
2021/08/18 01:13:53;;;;;;;31.20;22.40;;;;;;;;;;5074325;28;20485;-72
2021/08/18 01:16:20;;;;;;;31.40;20.67;;;;;;;;;;5074457;28;20432;-71
2021/08/18 01:18:49;;;;;;;35.00;23.40;;;;;;;;;;5074595;28;20441;-71
2021/08/18 01:21:16;;;;;;;37.23;23.20;;;;;;;;;;5074245;28;20438;-72
2021/08/18 01:23:43;;;;;;;35.33;22.90;;;;;;;;;;5074371;28;20477;-71
2021/08/18 01:26:11;;;;;;;34.60;23.20;;;;;;;;;;5074096;28;20447;-72
2021/08/18 01:28:39;;;;;;;28.77;21.63;;;;;;;;;;5073838;28;20446;-73
2021/08/18 01:31:06;;;;;;;40.10;22.50;;;;;;;;;;5073230;28;20445;-72
2021/08/18 01:33:34;;;;;;;31.10;21.63;;;;;;;;;;5073888;28;20441;-72
2021/08/18 01:36:01;;;;;;;33.03;21.10;;;;;;;;;;5074233;28;20944;-72
2021/08/18 01:38:28;;;;;;;32.80;20.40;;;;;;;;;;5073883;28;20447;-72
2021/08/18 01:40:56;;;;;;;30.67;21.57;;;;;;;;;;5073939;28;20445;-72
2021/08/18 01:43:24;;;;;;;41.70;23.90;;;;;;;;;;5074174;28;20444;-72
2021/08/18 01:45:53;;;;;;;33.17;20.67;;;;;;;;;;5074077;28;20437;-72
2021/08/18 01:48:21;;;;;;;30.80;20.03;;;;;;;;;;5073664;28;20552;-72
2021/08/18 01:50:49;;;;;;;30.97;20.57;;;;;;;;;;5073398;28;20453;-73
2021/08/18 01:53:17;;;;;;;33.80;21.70;;;;;;;;;;5074078;28;20528;-72
2021/08/18 01:55:45;;;;;;;33.53;21.90;;;;;;;;;;5074073;28;20481;-71
2021/08/18 01:58:12;;;;;;;34.60;21.17;;;;;;;;;;5073883;28;20437;-70
2021/08/18 02:00:39;;;;;;;30.17;20.43;;;;;;;;;;5083417;28;20448;-69
2021/08/18 02:03:08;;;;;;;34.90;22.87;;;;;;;;;;5094223;28;20839;-69
2021/08/18 02:05:35;;;;;;;34.80;21.67;;;;;;;;;;5094004;28;20456;-68
2021/08/18 02:08:02;;;;;;;32.70;22.83;;;;;;;;;;5093643;28;20927;-68
2021/08/18 02:10:30;;;;;;;34.10;21.50;;;;;;;;;;5091854;28;20939;-67
2021/08/18 02:12:57;;;;;;;33.90;21.20;;;;;;;;;;5092452;28;20438;-68
2021/08/18 02:15:26;;;;;;;34.00;21.23;;;;;;;;;;5093263;28;20484;-68
2021/08/18 02:17:54;;;;;;;35.87;20.63;;;;;;;;;;5093566;28;20766;-68
2021/08/18 02:20:23;;;;;;;31.77;19.53;;;;;;;;;;5093711;28;20444;-68
2021/08/18 02:22:51;;;;;;;26.13;16.90;;;;;;;;;;5093284;28;20479;-68
2021/08/18 02:25:19;;;;;;;24.47;16.50;;;;;;;;;;5093432;28;20460;-68
2021/08/18 02:27:46;;;;;;;24.67;15.63;;;;;;;;;;5093758;28;20437;-68
2021/08/18 02:30:15;;;;;;;22.27;16.27;;;;;;;;;;5083099;28;20450;-68
2021/08/18 02:32:42;;;;;;;23.43;15.30;;;;;;;;;;5073390;28;20449;-68
2021/08/18 02:35:10;;;;;;;21.77;14.73;;;;;;;;;;5073337;28;20520;-68
2021/08/18 02:37:39;;;;;;;25.60;15.33;;;;;;;;;;5073104;28;20800;-69
2021/08/18 02:40:07;;;;;;;25.83;14.90;;;;;;;;;;5073264;28;20454;-69
2021/08/18 02:42:34;;;;;;;21.53;13.50;;;;;;;;;;5073386;28;20437;-68
2021/08/18 02:45:01;;;;;;;20.13;14.87;;;;;;;;;;5072980;28;20453;-68
2021/08/18 02:47:29;;;;;;;18.80;14.43;;;;;;;;;;5073377;28;20794;-68
2021/08/18 02:49:56;;;;;;;23.13;15.40;;;;;;;;;;5073030;28;20460;-69
2021/08/18 02:52:23;;;;;;;20.80;14.13;;;;;;;;;;5072759;28;20446;-69
2021/08/18 02:54:51;;;;;;;21.57;14.20;;;;;;;;;;5073130;28;20566;-69
2021/08/18 02:57:19;;;;;;;22.53;14.30;;;;;;;;;;5073177;28;20442;-69
2021/08/18 02:59:46;;;;;;;18.60;12.87;;;;;;;;;;5072521;28;20452;-70
2021/08/18 03:02:13;;;;;;;23.33;13.80;;;;;;;;;;5071958;28;20466;-69
2021/08/18 03:04:40;;;;;;;21.40;13.83;;;;;;;;;;5072854;28;20878;-69
2021/08/18 03:07:07;;;;;;;19.10;13.50;;;;;;;;;;5073143;28;20446;-69
2021/08/18 03:09:35;;;;;;;21.00;12.70;;;;;;;;;;5073140;28;20448;-69
2021/08/18 03:12:03;;;;;;;19.03;13.00;;;;;;;;;;5072850;28;20440;-68
2021/08/18 03:14:31;;;;;;;18.50;12.20;;;;;;;;;;5072346;28;21018;-69
2021/08/18 03:16:58;;;;;;;19.73;12.70;;;;;;;;;;5072674;28;20930;-69
2021/08/18 03:19:25;;;;;;;19.83;13.33;;;;;;;;;;5072732;28;20437;-69
2021/08/18 03:21:52;;;;;;;19.23;12.73;;;;;;;;;;5072439;28;20454;-68
2021/08/18 03:24:20;;;;;;;25.93;14.20;;;;;;;;;;5077011;28;20440;-69
2021/08/18 03:26:47;;;;;;;18.47;12.80;;;;;;;;;;5076698;28;20799;-69
2021/08/18 03:29:16;;;;;;;21.33;14.40;;;;;;;;;;5076659;28;20785;-69
2021/08/18 03:31:43;;;;;;;21.07;14.03;;;;;;;;;;5074552;28;20449;-69
2021/08/18 03:34:10;;;;;;;20.70;13.43;;;;;;;;;;5076357;28;20451;-69
2021/08/18 03:36:38;;;;;;;16.80;12.80;;;;;;;;;;5077210;28;20557;-69
2021/08/18 03:39:05;;;;;;;18.80;12.97;;;;;;;;;;5076620;28;20793;-68
2021/08/18 03:41:32;;;;;;;20.20;13.37;;;;;;;;;;5076220;28;20731;-69
2021/08/18 03:43:59;;;;;;;15.93;12.20;;;;;;;;;;5077235;28;20762;-69
2021/08/18 03:46:28;;;;;;;18.17;13.03;;;;;;;;;;5076065;28;20948;-69
2021/08/18 03:48:55;;;;;;;22.63;14.37;;;;;;;;;;5076068;28;20443;-69
2021/08/18 03:51:23;;;;;;;20.47;13.03;;;;;;;;;;5075802;28;20919;-69
2021/08/18 03:53:50;;;;;;;22.03;13.10;;;;;;;;;;5075808;28;20443;-69
2021/08/18 03:56:17;;;;;;;22.70;14.60;;;;;;;;;;5076370;28;20481;-69
2021/08/18 03:58:44;;;;;;;20.70;13.53;;;;;;;;;;5075821;28;20934;-69
2021/08/18 04:01:12;;;;;;;23.00;14.03;;;;;;;;;;5073937;28;20562;-69
2021/08/18 04:03:40;;;;;;;24.10;12.80;;;;;;;;;;5075562;28;20441;-70
2021/08/18 04:06:07;;;;;;;19.73;12.17;;;;;;;;;;5075592;28;20445;-71
2021/08/18 04:08:35;;;;;;;18.50;13.60;;;;;;;;;;5074829;28;20472;-70
2021/08/18 04:11:05;;;;;;;18.00;13.63;;;;;;;;;;5074789;28;20441;-69
2021/08/18 04:13:32;;;;;;;18.60;13.17;;;;;;;;;;5075876;28;20449;-70
2021/08/18 04:15:59;;;;;;;23.67;13.83;;;;;;;;;;5075162;28;20480;-69
2021/08/18 04:18:27;;;;;;;20.63;14.13;;;;;;;;;;5075498;28;20442;-69
2021/08/18 04:20:55;;;;;;;20.90;14.83;;;;;;;;;;5074733;28;20802;-70
2021/08/18 04:23:22;;;;;;;22.67;13.10;;;;;;;;;;5074180;28;20483;-70
2021/08/18 04:25:49;;;;;;;18.80;15.23;;;;;;;;;;5074864;28;20524;-70
2021/08/18 04:28:17;;;;;;;22.70;13.20;;;;;;;;;;5075270;28;20432;-70
2021/08/18 04:30:44;;;;;;;24.00;16.50;;;;;;;;;;5073562;28;20455;-70
2021/08/18 04:33:11;;;;;;;25.00;15.53;;;;;;;;;;5074317;28;20947;-70
2021/08/18 04:35:38;;;;;;;28.30;17.70;;;;;;;;;;5075468;28;20485;-70
2021/08/18 04:38:07;;;;;;;27.50;17.77;;;;;;;;;;5074440;28;20433;-70
2021/08/18 04:40:34;;;;;;;27.20;17.20;;;;;;;;;;5074487;28;20453;-70
2021/08/18 04:43:01;;;;;;;23.60;18.53;;;;;;;;;;5074641;28;20904;-70
2021/08/18 04:45:28;;;;;;;23.63;17.80;;;;;;;;;;5074704;28;20895;-70
2021/08/18 04:47:56;;;;;;;27.83;17.17;;;;;;;;;;5074829;28;20942;-70
2021/08/18 04:50:24;;;;;;;22.30;16.40;;;;;;;;;;5074521;28;20956;-70
2021/08/18 04:52:51;;;;;;;26.63;18.13;;;;;;;;;;5074668;28;20454;-70
2021/08/18 04:55:20;;;;;;;26.47;16.57;;;;;;;;;;5074735;28;20482;-70
2021/08/18 04:57:47;;;;;;;25.87;18.30;;;;;;;;;;5074696;28;20442;-71
2021/08/18 05:00:15;;;;;;;22.73;16.13;;;;;;;;;;5072835;28;20441;-71
2021/08/18 05:02:44;;;;;;;32.73;18.60;;;;;;;;;;5073788;28;20436;-71
2021/08/18 05:05:12;;;;;;;29.40;19.07;;;;;;;;;;5074690;28;20840;-70
2021/08/18 05:07:39;;;;;;;25.00;17.80;;;;;;;;;;5074401;28;21020;-70
2021/08/18 05:10:06;;;;;;;25.73;17.30;;;;;;;;;;5073881;28;20440;-72
2021/08/18 05:12:35;;;;;;;26.20;18.50;;;;;;;;;;5073859;28;20438;-71
2021/08/18 05:15:02;;;;;;;28.77;18.77;;;;;;;;;;5073746;28;20481;-72
2021/08/18 05:17:29;;;;;;;28.67;20.30;;;;;;;;;;5073917;28;20440;-71
2021/08/18 05:19:57;;;;;;;24.50;17.00;;;;;;;;;;5074013;28;20441;-71
2021/08/18 05:22:24;;;;;;;26.03;17.83;;;;;;;;;;5073092;28;20481;-71
2021/08/18 05:24:51;;;;;;;26.07;17.93;;;;;;;;;;5073911;28;20446;-71
2021/08/18 05:27:18;;;;;;;23.30;16.30;;;;;;;;;;5072914;28;20449;-72
2021/08/18 05:29:47;;;;;;;30.90;18.50;;;;;;;;;;5073769;28;20935;-72
2021/08/18 05:32:14;;;;;;;26.80;18.80;;;;;;;;;;5088453;28;20444;-71
2021/08/18 05:34:41;;;;;;;34.73;21.20;;;;;;;;;;5094421;28;20444;-71
2021/08/18 05:37:08;;;;;;;30.47;19.40;;;;;;;;;;5094492;28;20442;-71
2021/08/18 05:39:35;;;;;;;31.07;18.53;;;;;;;;;;5094164;28;20435;-72
2021/08/18 05:42:03;;;;;;;25.87;18.93;;;;;;;;;;5094011;28;20452;-71
2021/08/18 05:44:30;;;;;;;26.23;19.40;;;;;;;;;;5093263;28;20955;-71
2021/08/18 05:46:58;;;;;;;26.40;18.30;;;;;;;;;;5093816;28;20456;-71
2021/08/18 05:49:26;;;;;;;25.63;20.10;;;;;;;;;;5093943;28;20446;-71
2021/08/18 05:51:53;;;;;;;26.67;17.43;;;;;;;;;;5093246;28;20445;-71
2021/08/18 05:54:20;;;;;;;23.77;18.20;;;;;;;;;;5093956;28;20443;-71
2021/08/18 05:56:48;;;;;;;28.00;18.87;;;;;;;;;;5094013;28;20905;-71
2021/08/18 05:59:15;;;;;;;23.60;17.70;;;;;;;;;;5093136;28;20440;-71
2021/08/18 06:01:43;;;;;;;26.93;19.20;;;;;;;;;;5079505;28;20453;-72
2021/08/18 06:04:11;;;;;;;23.50;16.07;;;;;;;;;;5072779;28;20452;-71
2021/08/18 06:06:38;;;;;;;26.47;19.07;;;;;;;;;;5073751;28;20440;-71
2021/08/18 06:09:06;;;;;;;25.80;18.90;;;;;;;;;;5073763;28;20437;-71
2021/08/18 06:11:33;;;;;;;31.33;21.03;;;;;;;;;;5073416;28;20437;-72
2021/08/18 06:14:00;;;;;;;24.40;18.97;;;;;;;;;;5073428;28;20480;-71
2021/08/18 06:16:27;;;;;;;29.90;21.40;;;;;;;;;;5072910;28;20476;-72
2021/08/18 06:18:54;;;;;;;28.70;21.03;;;;;;;;;;5073617;28;20437;-72
2021/08/18 06:21:23;;;;;;;23.50;16.70;;;;;;;;;;5073417;28;20448;-72
2021/08/18 06:23:52;;;;;;;28.07;19.97;;;;;;;;;;5073050;28;20481;-71
2021/08/18 06:26:19;;;;;;;24.33;18.50;;;;;;;;;;5073561;28;20502;-72
2021/08/18 06:28:47;;;;;;;23.83;19.77;;;;;;;;;;5073200;28;20921;-71
2021/08/18 06:31:14;;;;;;;28.93;19.70;;;;;;;;;;5073281;28;20449;-72
2021/08/18 06:33:41;;;;;;;23.07;17.93;;;;;;;;;;5071959;28;20449;-74
2021/08/18 06:36:09;;;;;;;28.53;18.50;;;;;;;;;;5072791;28;20480;-75
2021/08/18 06:38:37;;;;;;;28.40;20.30;;;;;;;;;;5073086;28;20930;-72
2021/08/18 06:41:04;;;;;;;27.30;21.40;;;;;;;;;;5072956;28;20441;-73
2021/08/18 06:43:32;;;;;;;26.03;20.57;;;;;;;;;;5072935;28;20441;-73
2021/08/18 06:45:59;;;;;;;27.97;21.53;;;;;;;;;;5072924;28;20499;-72
2021/08/18 06:48:26;;;;;;;26.20;18.60;;;;;;;;;;5073107;28;20922;-72
2021/08/18 06:50:53;;;;;;;25.60;18.53;;;;;;;;;;5072804;28;20447;-72
2021/08/18 06:53:29;;;;;;;27.30;19.83;;;;;;;;;;5072783;28;20540;-73
2021/08/18 06:55:58;;;;;;;31.77;20.50;;;;;;;;;;5073788;28;20805;-72
2021/08/18 06:58:25;;;;;;;26.57;18.73;;;;;;;;;;5078239;28;20536;-73
2021/08/18 07:00:52;;;;;;;23.23;17.50;;;;;;;;;;5077256;28;20436;-73
2021/08/18 07:03:19;;;;;;;28.80;19.73;;;;;;;;;;5075275;28;20973;-73
2021/08/18 07:05:47;;;;;;;23.20;16.17;;;;;;;;;;5076515;28;20438;-72
2021/08/18 07:08:14;;;;;;;23.47;18.53;;;;;;;;;;5077011;28;20433;-74
2021/08/18 07:10:41;;;;;;;28.37;17.87;;;;;;;;;;5077040;28;20458;-72
2021/08/18 07:13:10;;;;;;;27.77;19.40;;;;;;;;;;5076815;28;20449;-74
2021/08/18 07:15:37;;;;;;;22.80;17.17;;;;;;;;;;5076278;28;20472;-70
2021/08/18 07:18:04;;;;;;;20.30;18.13;;;;;;;;;;5076608;28;20442;-71
2021/08/18 07:20:31;;;;;;;21.77;17.70;;;;;;;;;;5077088;28;20451;-71
2021/08/18 07:22:59;;;;;;;23.37;17.40;;;;;;;;;;5076701;28;20888;-71
2021/08/18 07:25:26;;;;;;;26.87;19.23;;;;;;;;;;5076514;28;20445;-71
2021/08/18 07:27:53;;;;;;;26.90;18.13;;;;;;;;;;5076664;28;20451;-71
2021/08/18 07:30:21;;;;;;;23.33;17.47;;;;;;;;;;5076314;28;20450;-72
2021/08/18 07:32:49;;;;;;;19.33;14.50;;;;;;;;;;5076079;28;20433;-72
2021/08/18 07:35:17;;;;;;;26.70;16.10;;;;;;;;;;5074810;28;20802;-72
2021/08/18 07:37:44;;;;;;;18.33;15.67;;;;;;;;;;5077004;28;20443;-72
2021/08/18 07:40:11;;;;;;;16.93;14.43;;;;;;;;;;5076847;28;20784;-72
2021/08/18 07:42:38;;;;;;;16.23;14.63;;;;;;;;;;5076175;28;20449;-72
2021/08/18 07:45:06;;;;;;;17.50;14.27;;;;;;;;;;5076222;28;20448;-73
2021/08/18 07:47:35;;;;;;;17.93;11.20;;;;;;;;;;5076383;28;20989;-74
2021/08/18 07:50:02;;;;;;;14.60;11.33;;;;;;;;;;5076709;28;20438;-74
2021/08/18 07:52:29;;;;;;;14.50;10.90;;;;;;;;;;5076280;28;20458;-74
2021/08/18 07:54:56;;;;;;;13.93;11.40;;;;;;;;;;5075657;28;20445;-73
2021/08/18 07:57:24;;;;;;;14.10;10.60;;;;;;;;;;5076634;28;20507;-74
2021/08/18 07:59:52;;;;;;;14.10;12.20;;;;;;;;;;5076106;28;20452;-74
2021/08/18 08:02:19;;;;;;;13.23;11.83;;;;;;;;;;5075698;28;20459;-75
2021/08/18 08:04:48;;;;;;;12.70;10.70;;;;;;;;;;5073591;28;20440;-74
2021/08/18 08:07:16;;;;;;;16.47;12.97;;;;;;;;;;5074798;28;20443;-75
2021/08/18 08:09:43;;;;;;;14.30;11.97;;;;;;;;;;5075506;28;20448;-76
2021/08/18 08:12:10;;;;;;;13.90;11.07;;;;;;;;;;5075631;28;20960;-75
2021/08/18 08:14:38;;;;;;;13.60;11.23;;;;;;;;;;5075375;28;20930;-77
2021/08/18 08:17:05;;;;;;;18.67;13.17;;;;;;;;;;5075308;28;20482;-76
2021/08/18 08:19:33;;;;;;;12.37;10.97;;;;;;;;;;5075626;28;20437;-76
2021/08/18 08:22:01;;;;;;;12.17;10.97;;;;;;;;;;5075166;28;20967;-76
2021/08/18 08:24:28;;;;;;;11.83;8.23;;;;;;;;;;5075791;28;20440;-78
2021/08/18 08:26:56;;;;;;;11.80;9.17;;;;;;;;;;5075141;28;20445;-76
2021/08/18 08:29:23;;;;;;;14.07;9.93;;;;;;;;;;5075264;28;20488;-78
2021/08/18 08:31:50;;;;;;;11.27;9.17;;;;;;;;;;5075184;28;20445;-77
2021/08/18 08:34:19;;;;;;;10.13;8.00;;;;;;;;;;5073348;28;20815;-76
2021/08/18 08:36:46;;;;;;;11.40;8.23;;;;;;;;;;5075055;28;20491;-77
2021/08/18 08:39:15;;;;;;;10.50;7.70;;;;;;;;;;5076121;28;20773;-78
2021/08/18 08:41:43;;;;;;;9.07;7.57;;;;;;;;;;5074951;28;20442;-77
2021/08/18 08:44:15;;;;;;;10.87;8.37;;;;;;;;;;5074475;28;20860;-78
2021/08/18 08:46:42;;;;;;;9.17;8.20;;;;;;;;;;5073727;28;20449;-69
2021/08/18 08:49:09;;;;;;;9.23;7.70;;;;;;;;;;5074985;28;20451;-70
2021/08/18 08:51:37;;;;;;;8.50;6.50;;;;;;;;;;5075142;28;20473;-69
2021/08/18 08:54:04;;;;;;;10.83;6.00;;;;;;;;;;5075244;28;20437;-70
2021/08/18 08:56:34;;;;;;;7.17;6.50;;;;;;;;;;5074664;28;20486;-70
2021/08/18 08:59:01;;;;;;;7.70;5.93;;;;;;;;;;5074889;28;20448;-69
2021/08/18 09:01:28;;;;;;;7.17;5.53;;;;;;;;;;5075236;28;20448;-68
2021/08/18 09:03:55;;;;;;;5.93;5.33;;;;;;;;;;5072923;28;20446;-68
2021/08/18 09:06:23;;;;;;;7.27;5.13;;;;;;;;;;5074692;28;20851;-69
2021/08/18 09:08:51;;;;;;;12.80;4.83;;;;;;;;;;5074823;28;20441;-69
2021/08/18 09:11:19;;;;;;;5.00;4.50;;;;;;;;;;5074524;28;20473;-68
2021/08/18 09:13:49;;;;;;;4.70;4.30;;;;;;;;;;5074617;28;20859;-71
2021/08/18 09:16:17;;;;;;;5.60;5.00;;;;;;;;;;5073718;28;20482;-71
2021/08/18 09:18:45;;;;;;;5.03;4.53;;;;;;;;;;5074067;28;20437;-70
2021/08/18 09:21:34;;;;;;;7.87;4.30;;;;;;;;;;5074521;28;20445;-69
2021/08/18 09:24:20;;;;;;;4.83;4.20;;;;;;;;;;5073695;28;20542;-69
2021/08/18 09:26:49;;;;;;;4.70;4.20;;;;;;;;;;5074452;28;20519;-68
2021/08/18 09:29:27;;;;;;;5.57;3.60;;;;;;;;;;5074756;28;20447;-65
2021/08/18 09:31:55;;;;;;;4.67;4.17;;;;;;;;;;5074044;28;20439;-67
2021/08/18 09:34:22;;;;;;;4.30;3.33;;;;;;;;;;5072699;28;20483;-69
2021/08/18 09:36:49;;;;;;;3.33;2.83;;;;;;;;;;5073660;28;20559;-66
2021/08/18 09:39:21;;;;;;;6.00;3.73;;;;;;;;;;5074222;28;20442;-71
2021/08/18 09:41:49;;;;;;;5.00;4.37;;;;;;;;;;5073760;28;20449;-68
2021/08/18 09:44:16;;;;;;;5.73;3.80;;;;;;;;;;5074145;28;20804;-70
2021/08/18 09:46:46;;;;;;;4.10;3.70;;;;;;;;;;5073963;28;20868;-66
2021/08/18 09:49:14;;;;;;;4.87;3.20;;;;;;;;;;5073722;28;20445;-66
2021/08/18 09:51:43;;;;;;;5.37;3.93;;;;;;;;;;5073600;28;20444;-68
2021/08/18 09:54:13;;;;;;;5.00;4.03;;;;;;;;;;5073997;28;20871;-66
2021/08/18 09:56:44;;;;;;;4.23;3.50;;;;;;;;;;5073369;28;20485;-73
2021/08/18 09:59:11;;;;;;;4.97;3.20;;;;;;;;;;5073637;28;20440;-73
2021/08/18 10:01:40;;;;;;;4.63;3.70;;;;;;;;;;5073537;28;20452;-79
2021/08/18 10:04:09;;;;;;;4.60;3.30;;;;;;;;;;5073249;28;20451;-69
2021/08/18 10:06:37;;;;;;;3.73;3.43;;;;;;;;;;5071981;28;20477;-67
2021/08/18 10:09:05;;;;;;;4.40;3.93;;;;;;;;;;5073236;28;20525;-66
2021/08/18 10:11:32;;;;;;;3.73;3.07;;;;;;;;;;5073579;28;20455;-66
2021/08/18 10:13:59;;;;;;;3.13;2.87;;;;;;;;;;5073103;28;20454;-66
2021/08/18 10:16:27;;;;;;;6.10;3.50;;;;;;;;;;5073441;28;20790;-68
2021/08/18 10:18:56;;;;;;;7.27;3.20;;;;;;;;;;5073743;28;20439;-66
2021/08/18 10:21:26;;;;;;;3.90;3.50;;;;;;;;;;5073749;28;20446;-66
2021/08/18 10:23:57;;;;;;;5.87;3.37;;;;;;;;;;5073431;28;20478;-66
2021/08/18 10:26:43;;;;;;;3.53;2.60;;;;;;;;;;5073124;28;20948;-66
2021/08/18 10:29:13;;;;;;;5.03;3.20;;;;;;;;;;5073235;28;20449;-66
2021/08/18 10:32:05;;;;;;;4.20;3.33;;;;;;;;;;5072816;28;20444;-66
2021/08/18 10:34:33;;;;;;;3.10;2.90;;;;;;;;;;5058417;28;20782;-66
2021/08/18 10:37:03;;;;;;;5.43;3.97;;;;;;;;;;5071409;28;20781;-66
2021/08/18 10:39:31;;;;;;;3.83;3.53;;;;;;;;;;5073381;28;20788;-65
2021/08/18 10:41:59;;;;;;;3.30;3.00;;;;;;;;;;5073438;28;20440;-66
2021/08/18 10:44:36;;;;;;;3.63;3.33;;;;;;;;;;5073044;28;20454;-66
2021/08/18 10:47:20;;;;;;;3.40;3.10;;;;;;;;;;5072790;28;20456;-67
2021/08/18 10:49:48;;;;;;;3.90;3.50;;;;;;;;;;5072923;28;20477;-66
2021/08/18 10:52:30;;;;;;;3.93;3.53;;;;;;;;;;5073531;28;20446;-66
2021/08/18 10:55:05;;;;;;;3.53;3.23;;;;;;;;;;5073387;28;20435;-67
2021/08/18 10:57:40;;;;;;;5.10;3.23;;;;;;;;;;5073000;28;20531;-67
2021/08/18 11:00:08;;;;;;;3.57;3.27;;;;;;;;;;5072815;28;20980;-68
2021/08/18 11:02:49;;;;;;;5.07;3.27;;;;;;;;;;5072838;28;20447;-67
2021/08/18 11:05:17;;;;;;;3.60;3.30;;;;;;;;;;5072819;28;20447;-67
2021/08/18 11:08:02;;;;;;;4.20;3.77;;;;;;;;;;5071191;28;20537;-68
2021/08/18 11:10:31;;;;;;;5.73;3.00;;;;;;;;;;5072689;28;20447;-67
2021/08/18 11:12:59;;;;;;;8.40;3.40;;;;;;;;;;5072955;28;20452;-68
2021/08/18 11:15:53;;;;;;;3.43;3.23;;;;;;;;;;5073066;28;20439;-68
2021/08/18 11:18:20;;;;;;;3.20;3.00;;;;;;;;;;5025784;28;20842;-67
2021/08/18 11:20:49;;;;;;;3.63;3.30;;;;;;;;;;5073558;28;20521;-67
2021/08/18 11:23:16;;;;;;;2.60;2.40;;;;;;;;;;5072552;28;20490;-67
2021/08/18 11:25:46;;;;;;;3.40;3.10;;;;;;;;;;5072325;28;20527;-67
2021/08/18 11:28:21;;;;;;;2.87;2.67;;;;;;;;;;5072885;28;20449;-67
2021/08/18 11:30:56;;;;;;;3.20;2.93;;;;;;;;;;5073051;28;20428;-67
2021/08/18 11:33:24;;;;;;;3.50;3.20;;;;;;;;;;5073059;28;20486;-67
2021/08/18 11:35:51;;;;;;;4.57;3.20;;;;;;;;;;5072896;28;20490;-67
2021/08/18 11:38:19;;;;;;;5.30;2.73;;;;;;;;;;5070633;28;20483;-67
2021/08/18 11:40:50;;;;;;;5.73;3.10;;;;;;;;;;5073033;28;20526;-67
2021/08/18 11:43:18;;;;;;;4.70;3.03;;;;;;;;;;5072011;28;20841;-68
2021/08/18 11:45:51;;;;;;;3.60;3.30;;;;;;;;;;5076068;28;20445;-68
2021/08/18 11:48:21;;;;;;;3.20;2.67;;;;;;;;;;5076598;28;20853;-68
2021/08/18 11:50:52;;;;;;;2.70;2.50;;;;;;;;;;5076430;28;20492;-69
2021/08/18 11:53:21;;;;;;;2.50;2.30;;;;;;;;;;5076170;28;20446;-68
2021/08/18 11:55:58;;;;;;;3.63;2.30;;;;;;;;;;5075945;28;20443;-68
2021/08/18 11:58:31;;;;;;;3.03;2.83;;;;;;;;;;5076135;28;20506;-68
2021/08/18 12:00:58;;;;;;;3.60;2.67;;;;;;;;;;5076491;28;20440;-69
2021/08/18 12:03:26;;;;;;;2.90;2.67;;;;;;;;;;5075690;28;20493;-69
2021/08/18 12:05:59;;;;;;;7.20;2.50;;;;;;;;;;5075771;28;20946;-68
2021/08/18 12:08:34;;;;;;;2.70;2.33;;;;;;;;;;5076005;28;20438;-68
2021/08/18 12:11:03;;;;;;;3.50;2.53;;;;;;;;;;5076290;28;20510;-68
2021/08/18 12:13:39;;;;;;;2.27;2.07;;;;;;;;;;5073965;28;20454;-68
2021/08/18 12:16:23;;;;;;;2.70;2.50;;;;;;;;;;5075702;28;20911;-68
2021/08/18 12:18:51;;;;;;;2.10;1.90;;;;;;;;;;5076165;28;20558;-68
2021/08/18 12:21:19;;;;;;;2.27;2.07;;;;;;;;;;5075490;28;20447;-68
2021/08/18 12:23:46;;;;;;;2.60;2.40;;;;;;;;;;5075181;28;20479;-68
2021/08/18 12:26:32;;;;;;;4.43;3.20;;;;;;;;;;5075694;28;20444;-69
2021/08/18 12:29:00;;;;;;;2.67;2.40;;;;;;;;;;5075567;28;20514;-69
2021/08/18 12:31:28;;;;;;;2.80;2.60;;;;;;;;;;5075584;28;20530;-69
2021/08/18 12:34:08;;;;;;;2.83;2.63;;;;;;;;;;5074963;28;20439;-68
2021/08/18 12:36:35;;;;;;;2.43;2.23;;;;;;;;;;5075194;28;20446;-69
2021/08/18 12:39:02;;;;;;;14.20;5.03;;;;;;;;;;5075115;28;20478;-68
2021/08/18 12:41:31;;;;;;;22.87;6.00;;;;;;;;;;5075403;28;20442;-68
2021/08/18 12:44:08;;;;;;;5.30;3.80;;;;;;;;;;5072741;28;20439;-69
2021/08/18 12:46:36;;;;;;;3.13;2.83;;;;;;;;;;5074815;28;20443;-70
2021/08/18 12:49:21;;;;;;;3.57;2.77;;;;;;;;;;5075001;28;20892;-71
2021/08/18 12:51:48;;;;;;;3.10;2.90;;;;;;;;;;5075091;28;20442;-71
2021/08/18 12:54:16;;;;;;;3.83;3.00;;;;;;;;;;5075058;28;20449;-70
2021/08/18 12:56:44;;;;;;;4.00;3.40;;;;;;;;;;5074924;28;20450;-69
2021/08/18 12:59:11;;;;;;;4.10;2.83;;;;;;;;;;5074020;28;20572;-70
2021/08/18 13:01:39;;;;;;;5.53;3.90;;;;;;;;;;5074705;28;20435;-70
2021/08/18 13:04:06;;;;;;;6.13;4.50;;;;;;;;;;5074765;28;20477;-70
2021/08/18 13:06:33;;;;;;;5.90;5.40;;;;;;;;;;5074928;28;20533;-70
2021/08/18 13:09:00;;;;;;;9.57;6.03;;;;;;;;;;5074264;28;20478;-70
2021/08/18 13:11:27;;;;;;;12.43;7.20;;;;;;;;;;5075008;28;20465;-71
2021/08/18 13:13:56;;;;;;;7.67;6.97;;;;;;;;;;5073051;28;20461;-70
2021/08/18 13:16:23;;;;;;;6.53;6.03;;;;;;;;;;5074378;28;20442;-69
2021/08/18 13:18:51;;;;;;;9.17;8.37;;;;;;;;;;5074558;28;20570;-70
2021/08/18 13:21:18;;;;;;;9.43;8.53;;;;;;;;;;5074223;28;20492;-69
2021/08/18 13:23:45;;;;;;;11.10;8.87;;;;;;;;;;5073791;28;20482;-71
2021/08/18 13:26:13;;;;;;;10.80;9.70;;;;;;;;;;5074102;28;20449;-70
2021/08/18 13:28:40;;;;;;;10.97;9.70;;;;;;;;;;5073855;28;20537;-69
2021/08/18 13:31:09;;;;;;;12.53;10.67;;;;;;;;;;5073993;28;20960;-69
2021/08/18 13:33:36;;;;;;;12.03;10.83;;;;;;;;;;5073559;28;20441;-70
2021/08/18 13:36:05;;;;;;;13.57;12.23;;;;;;;;;;5073929;28;20449;-69
2021/08/18 13:38:34;;;;;;;13.90;12.70;;;;;;;;;;5073996;28;20973;-69
2021/08/18 13:41:01;;;;;;;16.07;13.33;;;;;;;;;;5074139;28;20465;-64
2021/08/18 13:43:28;;;;;;;15.77;12.77;;;;;;;;;;5074048;28;20478;-67
2021/08/18 13:45:56;;;;;;;13.30;12.00;;;;;;;;;;5072265;28;20447;-66
2021/08/18 13:48:25;;;;;;;14.50;13.00;;;;;;;;;;5073521;28;20541;-66
2021/08/18 13:50:53;;;;;;;14.27;12.87;;;;;;;;;;5073778;28;20442;-66
2021/08/18 13:53:20;;;;;;;14.93;13.40;;;;;;;;;;5074503;28;20450;-66
2021/08/18 13:55:47;;;;;;;15.00;12.17;;;;;;;;;;5073541;28;20441;-66
2021/08/18 13:58:14;;;;;;;11.50;10.30;;;;;;;;;;5073244;28;20471;-67
2021/08/18 14:00:42;;;;;;;13.03;11.80;;;;;;;;;;5073918;28;20446;-67
2021/08/18 14:03:10;;;;;;;11.57;10.10;;;;;;;;;;5074276;28;20916;-67
2021/08/18 14:05:38;;;;;;;11.50;10.33;;;;;;;;;;5072599;28;20449;-66
2021/08/18 14:08:10;;;;;;;11.33;10.20;;;;;;;;;;5073668;28;20459;-67
2021/08/18 14:10:37;;;;;;;10.90;9.90;;;;;;;;;;5073481;28;20426;-67
2021/08/18 14:13:05;;;;;;;9.80;8.80;;;;;;;;;;5073091;28;20534;-66
2021/08/18 14:15:33;;;;;;;9.83;8.87;;;;;;;;;;5071479;28;20448;-66
2021/08/18 14:18:00;;;;;;;13.70;8.43;;;;;;;;;;5073043;28;20983;-66
2021/08/18 14:20:28;;;;;;;7.30;6.07;;;;;;;;;;5073339;28;20433;-67
2021/08/18 14:22:56;;;;;;;10.60;7.50;;;;;;;;;;5072997;28;20481;-66
2021/08/18 14:25:23;;;;;;;8.00;7.33;;;;;;;;;;5073381;28;20452;-66
2021/08/18 14:27:52;;;;;;;8.87;7.93;;;;;;;;;;5073522;28;20533;-66
2021/08/18 14:30:19;;;;;;;7.10;6.43;;;;;;;;;;5073168;28;20944;-66
2021/08/18 14:32:48;;;;;;;7.40;6.70;;;;;;;;;;5073660;28;20439;-66
2021/08/18 14:35:15;;;;;;;8.03;6.43;;;;;;;;;;5073309;28;20804;-66